sensor_id;sensor_type;location;lat;lon;timestamp;temperature;humidity
86521;SHT30;77161;52.480;13.348;2024-03-25T00:01:00;6.37;87.31
86521;SHT30;77161;52.480;13.348;2024-03-25T00:03:26;6.49;86.57
86521;SHT30;77161;52.480;13.348;2024-03-25T00:05:51;6.53;86.10
86521;SHT30;77161;52.480;13.348;2024-03-25T00:08:16;6.46;86.54
86521;SHT30;77161;52.480;13.348;2024-03-25T00:10:42;6.46;86.78
86521;SHT30;77161;52.480;13.348;2024-03-25T00:13:07;6.50;85.84
86521;SHT30;77161;52.480;13.348;2024-03-25T00:15:35;6.50;86.23
86521;SHT30;77161;52.480;13.348;2024-03-25T00:18:03;6.46;86.60
86521;SHT30;77161;52.480;13.348;2024-03-25T00:20:29;6.50;86.14
86521;SHT30;77161;52.480;13.348;2024-03-25T00:22:54;6.49;85.99
86521;SHT30;77161;52.480;13.348;2024-03-25T00:25:20;6.53;85.90
86521;SHT30;77161;52.480;13.348;2024-03-25T00:27:46;6.46;86.38
86521;SHT30;77161;52.480;13.348;2024-03-25T00:30:12;6.43;86.34
86521;SHT30;77161;52.480;13.348;2024-03-25T00:32:37;6.45;86.02
86521;SHT30;77161;52.480;13.348;2024-03-25T00:35:03;6.42;85.92
86521;SHT30;77161;52.480;13.348;2024-03-25T00:37:29;6.36;86.58
86521;SHT30;77161;52.480;13.348;2024-03-25T00:39:55;6.36;86.34
86521;SHT30;77161;52.480;13.348;2024-03-25T00:42:20;6.32;86.06
86521;SHT30;77161;52.480;13.348;2024-03-25T00:44:46;6.35;86.66
86521;SHT30;77161;52.480;13.348;2024-03-25T00:47:11;6.42;86.21
86521;SHT30;77161;52.480;13.348;2024-03-25T00:49:37;6.39;86.17
86521;SHT30;77161;52.480;13.348;2024-03-25T00:52:04;6.42;86.02
86521;SHT30;77161;52.480;13.348;2024-03-25T00:54:29;6.45;85.78
86521;SHT30;77161;52.480;13.348;2024-03-25T00:56:55;6.37;85.81
86521;SHT30;77161;52.480;13.348;2024-03-25T00:59:20;6.46;85.57
86521;SHT30;77161;52.480;13.348;2024-03-25T01:01:46;6.46;85.68
86521;SHT30;77161;52.480;13.348;2024-03-25T01:04:11;6.47;85.79
86521;SHT30;77161;52.480;13.348;2024-03-25T01:06:37;6.50;85.49
86521;SHT30;77161;52.480;13.348;2024-03-25T01:09:03;6.54;85.29
86521;SHT30;77161;52.480;13.348;2024-03-25T01:11:30;6.59;85.14
86521;SHT30;77161;52.480;13.348;2024-03-25T01:13:56;6.49;85.70
86521;SHT30;77161;52.480;13.348;2024-03-25T01:16:21;6.50;86.07
86521;SHT30;77161;52.480;13.348;2024-03-25T01:18:47;6.52;85.66
86521;SHT30;77161;52.480;13.348;2024-03-25T01:21:16;6.53;85.66
86521;SHT30;77161;52.480;13.348;2024-03-25T01:23:41;6.47;86.17
86521;SHT30;77161;52.480;13.348;2024-03-25T01:26:07;6.42;86.72
86521;SHT30;77161;52.480;13.348;2024-03-25T01:28:32;6.54;85.92
86521;SHT30;77161;52.480;13.348;2024-03-25T01:30:58;6.62;85.62
86521;SHT30;77161;52.480;13.348;2024-03-25T01:33:23;6.67;85.47
86521;SHT30;77161;52.480;13.348;2024-03-25T01:35:49;6.65;85.52
86521;SHT30;77161;52.480;13.348;2024-03-25T01:38:15;6.49;85.65
86521;SHT30;77161;52.480;13.348;2024-03-25T01:40:41;6.52;85.63
86521;SHT30;77161;52.480;13.348;2024-03-25T01:43:06;6.45;85.52
86521;SHT30;77161;52.480;13.348;2024-03-25T01:45:34;6.42;84.67
86521;SHT30;77161;52.480;13.348;2024-03-25T01:48:06;6.33;84.64
86521;SHT30;77161;52.480;13.348;2024-03-25T01:50:35;6.22;85.32
86521;SHT30;77161;52.480;13.348;2024-03-25T01:53:02;6.09;86.35
86521;SHT30;77161;52.480;13.348;2024-03-25T01:55:29;6.01;86.54
86521;SHT30;77161;52.480;13.348;2024-03-25T01:57:56;5.90;85.97
86521;SHT30;77161;52.480;13.348;2024-03-25T02:00:23;5.88;86.25
86521;SHT30;77161;52.480;13.348;2024-03-25T02:09:41;5.71;86.90
86521;SHT30;77161;52.480;13.348;2024-03-25T02:12:08;5.87;86.22
86521;SHT30;77161;52.480;13.348;2024-03-25T02:14:34;5.94;85.69
86521;SHT30;77161;52.480;13.348;2024-03-25T02:17:01;5.87;86.20
86521;SHT30;77161;52.480;13.348;2024-03-25T02:19:28;5.98;86.26
86521;SHT30;77161;52.480;13.348;2024-03-25T02:21:53;5.91;87.12
86521;SHT30;77161;52.480;13.348;2024-03-25T02:24:20;5.85;87.70
86521;SHT30;77161;52.480;13.348;2024-03-25T02:26:46;5.88;87.75
86521;SHT30;77161;52.480;13.348;2024-03-25T02:29:12;5.91;87.78
86521;SHT30;77161;52.480;13.348;2024-03-25T02:31:37;5.79;88.43
86521;SHT30;77161;52.480;13.348;2024-03-25T02:34:03;5.90;88.71
86521;SHT30;77161;52.480;13.348;2024-03-25T02:36:28;5.97;87.82
86521;SHT30;77161;52.480;13.348;2024-03-25T02:38:54;5.99;87.73
86521;SHT30;77161;52.480;13.348;2024-03-25T02:41:20;6.16;87.16
86521;SHT30;77161;52.480;13.348;2024-03-25T02:43:48;6.21;86.49
86521;SHT30;77161;52.480;13.348;2024-03-25T02:46:13;6.22;85.94
86521;SHT30;77161;52.480;13.348;2024-03-25T02:48:39;6.19;86.48
86521;SHT30;77161;52.480;13.348;2024-03-25T02:51:05;6.26;86.01
86521;SHT30;77161;52.480;13.348;2024-03-25T02:53:31;6.22;86.12
86521;SHT30;77161;52.480;13.348;2024-03-25T02:55:56;6.18;86.33
86521;SHT30;77161;52.480;13.348;2024-03-25T02:58:22;6.26;85.46
86521;SHT30;77161;52.480;13.348;2024-03-25T03:00:47;6.26;85.73
86521;SHT30;77161;52.480;13.348;2024-03-25T03:03:13;6.26;85.23
86521;SHT30;77161;52.480;13.348;2024-03-25T03:05:38;6.24;85.31
86521;SHT30;77161;52.480;13.348;2024-03-25T03:08:04;6.15;85.38
86521;SHT30;77161;52.480;13.348;2024-03-25T03:10:30;6.15;85.63
86521;SHT30;77161;52.480;13.348;2024-03-25T03:12:55;6.18;85.48
86521;SHT30;77161;52.480;13.348;2024-03-25T03:15:21;6.15;85.47
86521;SHT30;77161;52.480;13.348;2024-03-25T03:17:46;6.14;85.73
86521;SHT30;77161;52.480;13.348;2024-03-25T03:20:12;6.15;85.53
86521;SHT30;77161;52.480;13.348;2024-03-25T03:22:37;6.16;85.49
86521;SHT30;77161;52.480;13.348;2024-03-25T03:25:03;6.16;85.44
86521;SHT30;77161;52.480;13.348;2024-03-25T03:27:29;6.04;86.16
86521;SHT30;77161;52.480;13.348;2024-03-25T03:29:55;6.04;86.68
86521;SHT30;77161;52.480;13.348;2024-03-25T03:32:21;5.98;86.14
86521;SHT30;77161;52.480;13.348;2024-03-25T03:34:46;5.99;86.15
86521;SHT30;77161;52.480;13.348;2024-03-25T03:37:12;6.08;85.77
86521;SHT30;77161;52.480;13.348;2024-03-25T03:39:37;6.01;85.83
86521;SHT30;77161;52.480;13.348;2024-03-25T03:42:03;6.04;86.10
86521;SHT30;77161;52.480;13.348;2024-03-25T03:44:28;6.11;86.00
86521;SHT30;77161;52.480;13.348;2024-03-25T03:46:54;6.08;85.95
86521;SHT30;77161;52.480;13.348;2024-03-25T03:49:19;6.06;86.24
86521;SHT30;77161;52.480;13.348;2024-03-25T03:51:45;6.08;86.14
86521;SHT30;77161;52.480;13.348;2024-03-25T03:54:10;6.09;86.16
86521;SHT30;77161;52.480;13.348;2024-03-25T03:56:36;6.01;86.58
86521;SHT30;77161;52.480;13.348;2024-03-25T03:59:01;6.11;86.41
86521;SHT30;77161;52.480;13.348;2024-03-25T04:01:27;6.11;86.37
86521;SHT30;77161;52.480;13.348;2024-03-25T04:03:53;6.09;86.88
86521;SHT30;77161;52.480;13.348;2024-03-25T04:06:19;5.94;87.63
86521;SHT30;77161;52.480;13.348;2024-03-25T04:08:45;5.93;87.51
86521;SHT30;77161;52.480;13.348;2024-03-25T04:11:10;5.91;88.05
86521;SHT30;77161;52.480;13.348;2024-03-25T04:13:36;5.83;88.49
86521;SHT30;77161;52.480;13.348;2024-03-25T04:16:05;5.84;88.95
86521;SHT30;77161;52.480;13.348;2024-03-25T04:18:32;5.97;87.96
86521;SHT30;77161;52.480;13.348;2024-03-25T04:20:58;5.94;88.24
86521;SHT30;77161;52.480;13.348;2024-03-25T04:23:24;5.88;88.49
86521;SHT30;77161;52.480;13.348;2024-03-25T04:25:50;5.98;88.31
86521;SHT30;77161;52.480;13.348;2024-03-25T04:28:16;6.02;87.96
86521;SHT30;77161;52.480;13.348;2024-03-25T04:30:42;5.91;88.08
86521;SHT30;77161;52.480;13.348;2024-03-25T04:33:08;5.97;87.29
86521;SHT30;77161;52.480;13.348;2024-03-25T04:35:37;6.02;87.39
86521;SHT30;77161;52.480;13.348;2024-03-25T04:38:02;5.97;87.68
86521;SHT30;77161;52.480;13.348;2024-03-25T04:40:28;5.94;88.18
86521;SHT30;77161;52.480;13.348;2024-03-25T04:42:54;5.88;88.17
86521;SHT30;77161;52.480;13.348;2024-03-25T04:45:20;5.93;88.07
86521;SHT30;77161;52.480;13.348;2024-03-25T04:47:45;6.01;87.56
86521;SHT30;77161;52.480;13.348;2024-03-25T04:50:11;5.99;87.62
86521;SHT30;77161;52.480;13.348;2024-03-25T04:52:36;5.98;87.92
86521;SHT30;77161;52.480;13.348;2024-03-25T04:55:02;5.94;88.06
86521;SHT30;77161;52.480;13.348;2024-03-25T04:57:27;6.11;87.34
86521;SHT30;77161;52.480;13.348;2024-03-25T04:59:53;6.08;86.70
86521;SHT30;77161;52.480;13.348;2024-03-25T05:02:18;6.08;87.01
86521;SHT30;77161;52.480;13.348;2024-03-25T05:04:44;6.08;86.84
86521;SHT30;77161;52.480;13.348;2024-03-25T05:07:09;6.02;86.92
86521;SHT30;77161;52.480;13.348;2024-03-25T05:09:35;6.06;87.39
86521;SHT30;77161;52.480;13.348;2024-03-25T05:12:01;6.11;87.24
86521;SHT30;77161;52.480;13.348;2024-03-25T05:14:26;6.06;86.97
86521;SHT30;77161;52.480;13.348;2024-03-25T05:16:52;6.06;87.61
86521;SHT30;77161;52.480;13.348;2024-03-25T05:19:18;6.08;87.08
86521;SHT30;77161;52.480;13.348;2024-03-25T05:21:44;6.14;86.58
86521;SHT30;77161;52.480;13.348;2024-03-25T05:24:10;6.12;87.13
86521;SHT30;77161;52.480;13.348;2024-03-25T05:26:35;6.16;86.72
86521;SHT30;77161;52.480;13.348;2024-03-25T05:29:01;6.12;86.75
86521;SHT30;77161;52.480;13.348;2024-03-25T05:31:27;6.14;86.65
86521;SHT30;77161;52.480;13.348;2024-03-25T05:33:53;6.18;86.76
86521;SHT30;77161;52.480;13.348;2024-03-25T05:36:18;6.08;87.36
86521;SHT30;77161;52.480;13.348;2024-03-25T05:38:45;6.06;87.84
86521;SHT30;77161;52.480;13.348;2024-03-25T05:41:12;6.02;87.99
86521;SHT30;77161;52.480;13.348;2024-03-25T05:43:38;6.11;87.33
86521;SHT30;77161;52.480;13.348;2024-03-25T05:46:04;6.09;87.49
86521;SHT30;77161;52.480;13.348;2024-03-25T05:48:29;6.15;86.90
86521;SHT30;77161;52.480;13.348;2024-03-25T05:51:06;6.16;86.95
86521;SHT30;77161;52.480;13.348;2024-03-25T05:53:34;6.11;86.92
86521;SHT30;77161;52.480;13.348;2024-03-25T05:56:00;6.15;87.12
86521;SHT30;77161;52.480;13.348;2024-03-25T05:58:26;6.26;86.61
86521;SHT30;77161;52.480;13.348;2024-03-25T06:00:52;6.16;86.62
86521;SHT30;77161;52.480;13.348;2024-03-25T06:03:21;6.24;86.28
86521;SHT30;77161;52.480;13.348;2024-03-25T06:05:47;6.29;86.04
86521;SHT30;77161;52.480;13.348;2024-03-25T06:08:13;6.36;85.89
86521;SHT30;77161;52.480;13.348;2024-03-25T06:10:51;6.35;85.54
86521;SHT30;77161;52.480;13.348;2024-03-25T06:13:17;6.36;85.56
86521;SHT30;77161;52.480;13.348;2024-03-25T06:15:42;6.26;85.73
86521;SHT30;77161;52.480;13.348;2024-03-25T06:18:08;6.22;86.46
86521;SHT30;77161;52.480;13.348;2024-03-25T06:20:34;6.37;85.79
86521;SHT30;77161;52.480;13.348;2024-03-25T06:22:59;6.28;86.10
86521;SHT30;77161;52.480;13.348;2024-03-25T06:25:24;6.29;85.82
86521;SHT30;77161;52.480;13.348;2024-03-25T06:27:50;6.40;85.52
86521;SHT30;77161;52.480;13.348;2024-03-25T06:30:16;6.35;85.65
86521;SHT30;77161;52.480;13.348;2024-03-25T06:32:59;6.28;85.64
86521;SHT30;77161;52.480;13.348;2024-03-25T06:35:44;6.47;85.46
86521;SHT30;77161;52.480;13.348;2024-03-25T06:38:10;6.42;85.46
86521;SHT30;77161;52.480;13.348;2024-03-25T06:40:36;6.42;84.88
86521;SHT30;77161;52.480;13.348;2024-03-25T06:43:02;6.37;85.13
86521;SHT30;77161;52.480;13.348;2024-03-25T06:45:27;6.36;85.55
86521;SHT30;77161;52.480;13.348;2024-03-25T06:47:53;6.45;85.15
86521;SHT30;77161;52.480;13.348;2024-03-25T06:50:18;6.40;85.06
86521;SHT30;77161;52.480;13.348;2024-03-25T06:52:44;6.43;85.26
86521;SHT30;77161;52.480;13.348;2024-03-25T06:55:09;6.42;85.04
86521;SHT30;77161;52.480;13.348;2024-03-25T06:57:35;6.40;85.21
86521;SHT30;77161;52.480;13.348;2024-03-25T07:00:00;6.40;84.92
86521;SHT30;77161;52.480;13.348;2024-03-25T07:02:26;6.49;84.74
86521;SHT30;77161;52.480;13.348;2024-03-25T07:04:51;6.47;84.73
86521;SHT30;77161;52.480;13.348;2024-03-25T07:07:17;6.45;85.66
86521;SHT30;77161;52.480;13.348;2024-03-25T07:09:42;6.45;85.88
86521;SHT30;77161;52.480;13.348;2024-03-25T07:12:08;6.42;86.01
86521;SHT30;77161;52.480;13.348;2024-03-25T07:14:33;6.39;85.90
86521;SHT30;77161;52.480;13.348;2024-03-25T07:16:59;6.32;86.13
86521;SHT30;77161;52.480;13.348;2024-03-25T07:19:25;6.36;86.26
86521;SHT30;77161;52.480;13.348;2024-03-25T07:21:50;6.45;85.76
86521;SHT30;77161;52.480;13.348;2024-03-25T07:24:16;6.52;85.75
86521;SHT30;77161;52.480;13.348;2024-03-25T07:26:41;6.56;84.66
86521;SHT30;77161;52.480;13.348;2024-03-25T07:29:07;6.50;84.92
86521;SHT30;77161;52.480;13.348;2024-03-25T07:31:32;6.46;85.34
86521;SHT30;77161;52.480;13.348;2024-03-25T07:33:58;6.46;85.84
86521;SHT30;77161;52.480;13.348;2024-03-25T07:36:23;6.45;85.39
86521;SHT30;77161;52.480;13.348;2024-03-25T07:38:49;6.49;85.06
86521;SHT30;77161;52.480;13.348;2024-03-25T07:41:15;6.50;85.16
86521;SHT30;77161;52.480;13.348;2024-03-25T07:43:40;6.46;86.05
86521;SHT30;77161;52.480;13.348;2024-03-25T07:46:06;6.43;86.07
86521;SHT30;77161;52.480;13.348;2024-03-25T07:48:31;6.53;85.94
86521;SHT30;77161;52.480;13.348;2024-03-25T07:50:56;6.54;85.74
86521;SHT30;77161;52.480;13.348;2024-03-25T07:53:22;6.39;85.90
86521;SHT30;77161;52.480;13.348;2024-03-25T07:55:47;6.57;85.42
86521;SHT30;77161;52.480;13.348;2024-03-25T07:58:13;6.52;85.27
86521;SHT30;77161;52.480;13.348;2024-03-25T08:00:38;6.59;85.14
86521;SHT30;77161;52.480;13.348;2024-03-25T08:03:04;6.53;85.29
86521;SHT30;77161;52.480;13.348;2024-03-25T08:05:30;6.53;85.75
86521;SHT30;77161;52.480;13.348;2024-03-25T08:07:55;6.39;87.44
86521;SHT30;77161;52.480;13.348;2024-03-25T08:10:21;6.50;88.05
86521;SHT30;77161;52.480;13.348;2024-03-25T08:12:46;6.67;85.99
86521;SHT30;77161;52.480;13.348;2024-03-25T08:15:11;6.81;86.34
86521;SHT30;77161;52.480;13.348;2024-03-25T08:17:38;7.04;85.35
86521;SHT30;77161;52.480;13.348;2024-03-25T08:20:07;7.20;84.12
86521;SHT30;77161;52.480;13.348;2024-03-25T08:22:34;7.24;83.45
86521;SHT30;77161;52.480;13.348;2024-03-25T08:24:59;7.31;83.67
86521;SHT30;77161;52.480;13.348;2024-03-25T08:27:25;7.45;82.53
86521;SHT30;77161;52.480;13.348;2024-03-25T08:29:50;7.52;82.14
86521;SHT30;77161;52.480;13.348;2024-03-25T08:32:22;7.66;82.52
86521;SHT30;77161;52.480;13.348;2024-03-25T08:34:47;7.89;81.82
86521;SHT30;77161;52.480;13.348;2024-03-25T08:37:13;7.90;81.29
86521;SHT30;77161;52.480;13.348;2024-03-25T08:39:38;8.07;80.13
86521;SHT30;77161;52.480;13.348;2024-03-25T08:42:04;8.22;79.82
86521;SHT30;77161;52.480;13.348;2024-03-25T08:44:29;8.16;79.71
86521;SHT30;77161;52.480;13.348;2024-03-25T08:46:55;7.99;79.88
86521;SHT30;77161;52.480;13.348;2024-03-25T08:49:21;8.22;79.59
86521;SHT30;77161;52.480;13.348;2024-03-25T08:51:46;8.17;79.69
86521;SHT30;77161;52.480;13.348;2024-03-25T08:54:12;8.30;78.84
86521;SHT30;77161;52.480;13.348;2024-03-25T08:56:37;8.36;78.28
86521;SHT30;77161;52.480;13.348;2024-03-25T08:59:03;8.27;78.60
86521;SHT30;77161;52.480;13.348;2024-03-25T09:01:28;8.44;78.13
86521;SHT30;77161;52.480;13.348;2024-03-25T09:03:55;8.41;78.03
86521;SHT30;77161;52.480;13.348;2024-03-25T09:06:21;8.23;78.52
86521;SHT30;77161;52.480;13.348;2024-03-25T09:08:47;8.53;77.53
86521;SHT30;77161;52.480;13.348;2024-03-25T09:11:31;8.58;77.06
86521;SHT30;77161;52.480;13.348;2024-03-25T09:13:57;8.50;77.03
86521;SHT30;77161;52.480;13.348;2024-03-25T09:16:22;8.60;76.27
86521;SHT30;77161;52.480;13.348;2024-03-25T09:18:48;8.61;76.30
86521;SHT30;77161;52.480;13.348;2024-03-25T09:21:13;8.30;77.15
86521;SHT30;77161;52.480;13.348;2024-03-25T09:23:39;8.20;77.13
86521;SHT30;77161;52.480;13.348;2024-03-25T09:26:05;8.10;77.61
86521;SHT30;77161;52.480;13.348;2024-03-25T09:28:30;8.19;77.63
86521;SHT30;77161;52.480;13.348;2024-03-25T09:30:56;8.24;76.30
86521;SHT30;77161;52.480;13.348;2024-03-25T09:33:21;8.27;76.36
86521;SHT30;77161;52.480;13.348;2024-03-25T09:35:47;8.40;76.14
86521;SHT30;77161;52.480;13.348;2024-03-25T09:38:13;8.65;76.11
86521;SHT30;77161;52.480;13.348;2024-03-25T09:40:40;8.75;75.81
86521;SHT30;77161;52.480;13.348;2024-03-25T09:43:32;8.88;75.23
86521;SHT30;77161;52.480;13.348;2024-03-25T09:45:57;8.95;75.21
86521;SHT30;77161;52.480;13.348;2024-03-25T09:48:24;9.08;74.82
86521;SHT30;77161;52.480;13.348;2024-03-25T09:50:50;9.16;74.14
86521;SHT30;77161;52.480;13.348;2024-03-25T09:53:17;9.44;73.11
86521;SHT30;77161;52.480;13.348;2024-03-25T09:55:42;9.42;73.12
86521;SHT30;77161;52.480;13.348;2024-03-25T09:58:08;9.60;72.77
86521;SHT30;77161;52.480;13.348;2024-03-25T10:00:34;9.86;72.52
86521;SHT30;77161;52.480;13.348;2024-03-25T10:03:00;9.94;70.72
86521;SHT30;77161;52.480;13.348;2024-03-25T10:05:25;9.95;69.89
86521;SHT30;77161;52.480;13.348;2024-03-25T10:07:51;9.98;68.91
86521;SHT30;77161;52.480;13.348;2024-03-25T10:10:19;9.98;69.22
86521;SHT30;77161;52.480;13.348;2024-03-25T10:12:45;9.81;69.38
86521;SHT30;77161;52.480;13.348;2024-03-25T10:15:16;10.00;69.00
86521;SHT30;77161;52.480;13.348;2024-03-25T10:17:42;10.02;68.98
86521;SHT30;77161;52.480;13.348;2024-03-25T10:20:13;9.88;68.25
86521;SHT30;77161;52.480;13.348;2024-03-25T10:22:45;9.61;69.57
86521;SHT30;77161;52.480;13.348;2024-03-25T10:27:59;9.59;67.40
86521;SHT30;77161;52.480;13.348;2024-03-25T10:30:26;9.54;67.38
86521;SHT30;77161;52.480;13.348;2024-03-25T10:33:04;9.51;67.04
86521;SHT30;77161;52.480;13.348;2024-03-25T10:35:32;9.60;67.82
86521;SHT30;77161;52.480;13.348;2024-03-25T10:38:06;9.94;65.82
86521;SHT30;77161;52.480;13.348;2024-03-25T10:40:36;9.94;64.75
86521;SHT30;77161;52.480;13.348;2024-03-25T10:43:04;10.01;63.87
86521;SHT30;77161;52.480;13.348;2024-03-25T10:45:47;9.98;64.06
86521;SHT30;77161;52.480;13.348;2024-03-25T10:48:17;9.86;64.84
86521;SHT30;77161;52.480;13.348;2024-03-25T10:50:43;9.88;65.44
86521;SHT30;77161;52.480;13.348;2024-03-25T10:53:10;9.59;64.61
86521;SHT30;77161;52.480;13.348;2024-03-25T10:55:36;9.63;64.04
86521;SHT30;77161;52.480;13.348;2024-03-25T10:58:03;9.80;63.33
86521;SHT30;77161;52.480;13.348;2024-03-25T11:00:29;9.69;63.73
86521;SHT30;77161;52.480;13.348;2024-03-25T11:02:55;9.74;64.34
86521;SHT30;77161;52.480;13.348;2024-03-25T11:05:21;9.97;63.50
86521;SHT30;77161;52.480;13.348;2024-03-25T11:07:47;10.15;63.64
86521;SHT30;77161;52.480;13.348;2024-03-25T11:10:13;10.42;62.63
86521;SHT30;77161;52.480;13.348;2024-03-25T11:12:41;10.59;62.58
86521;SHT30;77161;52.480;13.348;2024-03-25T11:15:08;10.32;61.43
86521;SHT30;77161;52.480;13.348;2024-03-25T11:17:34;10.58;60.94
86521;SHT30;77161;52.480;13.348;2024-03-25T11:20:12;10.52;60.83
86521;SHT30;77161;52.480;13.348;2024-03-25T11:22:52;10.73;61.10
86521;SHT30;77161;52.480;13.348;2024-03-25T11:25:21;10.51;60.32
86521;SHT30;77161;52.480;13.348;2024-03-25T11:27:47;10.29;61.50
86521;SHT30;77161;52.480;13.348;2024-03-25T11:30:16;9.95;62.73
86521;SHT30;77161;52.480;13.348;2024-03-25T11:32:52;10.17;62.67
86521;SHT30;77161;52.480;13.348;2024-03-25T11:35:19;10.48;61.26
86521;SHT30;77161;52.480;13.348;2024-03-25T11:37:44;10.48;60.40
86521;SHT30;77161;52.480;13.348;2024-03-25T11:40:11;10.49;59.98
86521;SHT30;77161;52.480;13.348;2024-03-25T11:42:41;10.72;59.62
86521;SHT30;77161;52.480;13.348;2024-03-25T11:45:20;11.03;58.84
86521;SHT30;77161;52.480;13.348;2024-03-25T11:47:48;11.35;57.97
86521;SHT30;77161;52.480;13.348;2024-03-25T11:50:16;11.55;56.72
86521;SHT30;77161;52.480;13.348;2024-03-25T11:52:42;11.81;55.76
86521;SHT30;77161;52.480;13.348;2024-03-25T11:55:08;11.75;55.67
86521;SHT30;77161;52.480;13.348;2024-03-25T11:57:36;11.81;54.96
86521;SHT30;77161;52.480;13.348;2024-03-25T12:00:02;11.86;53.09
86521;SHT30;77161;52.480;13.348;2024-03-25T12:02:31;11.75;52.73
86521;SHT30;77161;52.480;13.348;2024-03-25T12:04:57;11.70;52.89
86521;SHT30;77161;52.480;13.348;2024-03-25T12:07:23;11.58;53.40
86521;SHT30;77161;52.480;13.348;2024-03-25T12:09:48;11.27;54.13
86521;SHT30;77161;52.480;13.348;2024-03-25T12:12:33;10.75;55.91
86521;SHT30;77161;52.480;13.348;2024-03-25T12:15:00;10.55;57.03
86521;SHT30;77161;52.480;13.348;2024-03-25T12:17:28;10.83;56.77
86521;SHT30;77161;52.480;13.348;2024-03-25T12:20:05;11.24;55.18
86521;SHT30;77161;52.480;13.348;2024-03-25T12:22:32;11.70;54.27
86521;SHT30;77161;52.480;13.348;2024-03-25T12:25:00;11.96;53.09
86521;SHT30;77161;52.480;13.348;2024-03-25T12:27:27;11.98;53.22
86521;SHT30;77161;52.480;13.348;2024-03-25T12:30:00;11.94;52.76
86521;SHT30;77161;52.480;13.348;2024-03-25T12:32:39;11.71;52.72
86521;SHT30;77161;52.480;13.348;2024-03-25T12:35:08;11.64;53.22
86521;SHT30;77161;52.480;13.348;2024-03-25T12:37:34;11.75;53.24
86521;SHT30;77161;52.480;13.348;2024-03-25T12:39:59;11.94;52.83
86521;SHT30;77161;52.480;13.348;2024-03-25T12:42:26;11.61;53.46
86521;SHT30;77161;52.480;13.348;2024-03-25T12:44:55;11.58;51.91
86521;SHT30;77161;52.480;13.348;2024-03-25T12:47:21;11.54;52.13
86521;SHT30;77161;52.480;13.348;2024-03-25T12:49:46;11.24;52.34
86521;SHT30;77161;52.480;13.348;2024-03-25T12:52:12;11.26;52.57
86521;SHT30;77161;52.480;13.348;2024-03-25T12:54:38;11.27;52.29
86521;SHT30;77161;52.480;13.348;2024-03-25T12:57:04;11.06;52.63
86521;SHT30;77161;52.480;13.348;2024-03-25T12:59:30;11.21;52.54
86521;SHT30;77161;52.480;13.348;2024-03-25T13:01:55;11.44;52.58
86521;SHT30;77161;52.480;13.348;2024-03-25T13:04:21;11.35;52.27
86521;SHT30;77161;52.480;13.348;2024-03-25T13:06:47;11.53;52.11
86521;SHT30;77161;52.480;13.348;2024-03-25T13:09:12;11.33;52.31
86521;SHT30;77161;52.480;13.348;2024-03-25T13:11:38;11.35;52.74
86521;SHT30;77161;52.480;13.348;2024-03-25T13:14:04;11.20;52.86
86521;SHT30;77161;52.480;13.348;2024-03-25T13:16:35;11.28;53.11
86521;SHT30;77161;52.480;13.348;2024-03-25T13:19:00;11.41;51.81
86521;SHT30;77161;52.480;13.348;2024-03-25T13:21:26;11.41;51.27
86521;SHT30;77161;52.480;13.348;2024-03-25T13:23:52;11.11;50.76
86521;SHT30;77161;52.480;13.348;2024-03-25T13:26:17;11.24;50.10
86521;SHT30;77161;52.480;13.348;2024-03-25T13:28:43;11.20;48.87
86521;SHT30;77161;52.480;13.348;2024-03-25T13:31:08;11.28;49.79
86521;SHT30;77161;52.480;13.348;2024-03-25T13:33:34;11.27;50.36
86521;SHT30;77161;52.480;13.348;2024-03-25T13:36:00;11.20;50.80
86521;SHT30;77161;52.480;13.348;2024-03-25T13:38:25;11.47;50.07
86521;SHT30;77161;52.480;13.348;2024-03-25T13:40:52;11.47;50.36
86521;SHT30;77161;52.480;13.348;2024-03-25T13:43:17;11.72;50.43
86521;SHT30;77161;52.480;13.348;2024-03-25T13:45:47;11.77;49.93
86521;SHT30;77161;52.480;13.348;2024-03-25T13:48:14;12.06;49.64
86521;SHT30;77161;52.480;13.348;2024-03-25T13:50:39;12.16;48.32
86521;SHT30;77161;52.480;13.348;2024-03-25T13:53:05;12.15;48.26
86521;SHT30;77161;52.480;13.348;2024-03-25T13:55:31;12.25;48.09
86521;SHT30;77161;52.480;13.348;2024-03-25T13:57:56;12.21;48.75
86521;SHT30;77161;52.480;13.348;2024-03-25T14:00:22;12.12;49.73
86521;SHT30;77161;52.480;13.348;2024-03-25T14:02:48;11.92;50.34
86521;SHT30;77161;52.480;13.348;2024-03-25T14:05:13;11.95;50.39
86521;SHT30;77161;52.480;13.348;2024-03-25T14:07:39;11.98;50.78
86521;SHT30;77161;52.480;13.348;2024-03-25T14:10:05;11.72;51.53
86521;SHT30;77161;52.480;13.348;2024-03-25T14:12:30;11.57;52.47
86521;SHT30;77161;52.480;13.348;2024-03-25T14:14:56;11.31;53.07
86521;SHT30;77161;52.480;13.348;2024-03-25T14:17:21;11.17;53.86
86521;SHT30;77161;52.480;13.348;2024-03-25T14:19:46;11.06;54.99
86521;SHT30;77161;52.480;13.348;2024-03-25T14:22:12;11.02;55.96
86521;SHT30;77161;52.480;13.348;2024-03-25T14:24:37;10.82;56.21
86521;SHT30;77161;52.480;13.348;2024-03-25T14:27:03;10.73;57.68
86521;SHT30;77161;52.480;13.348;2024-03-25T14:29:29;10.53;58.94
86521;SHT30;77161;52.480;13.348;2024-03-25T14:31:54;10.55;58.72
86521;SHT30;77161;52.480;13.348;2024-03-25T14:34:20;10.51;59.54
86521;SHT30;77161;52.480;13.348;2024-03-25T14:36:45;10.44;59.53
86521;SHT30;77161;52.480;13.348;2024-03-25T14:39:11;10.51;58.80
86521;SHT30;77161;52.480;13.348;2024-03-25T14:41:39;10.58;58.94
86521;SHT30;77161;52.480;13.348;2024-03-25T14:44:04;10.49;58.61
86521;SHT30;77161;52.480;13.348;2024-03-25T14:46:30;10.68;57.88
86521;SHT30;77161;52.480;13.348;2024-03-25T14:48:55;10.69;58.08
86521;SHT30;77161;52.480;13.348;2024-03-25T14:51:21;10.59;58.02
86521;SHT30;77161;52.480;13.348;2024-03-25T14:53:46;10.63;58.12
86521;SHT30;77161;52.480;13.348;2024-03-25T14:56:12;10.46;58.12
86521;SHT30;77161;52.480;13.348;2024-03-25T14:58:40;10.18;58.77
86521;SHT30;77161;52.480;13.348;2024-03-25T15:01:05;9.97;59.65
86521;SHT30;77161;52.480;13.348;2024-03-25T15:03:31;9.71;61.00
86521;SHT30;77161;52.480;13.348;2024-03-25T15:05:56;9.57;62.18
86521;SHT30;77161;52.480;13.348;2024-03-25T15:08:22;9.54;62.11
86521;SHT30;77161;52.480;13.348;2024-03-25T15:10:47;9.53;60.89
86521;SHT30;77161;52.480;13.348;2024-03-25T15:13:14;9.46;61.29
86521;SHT30;77161;52.480;13.348;2024-03-25T15:15:40;9.49;60.57
86521;SHT30;77161;52.480;13.348;2024-03-25T15:18:07;9.30;62.43
86521;SHT30;77161;52.480;13.348;2024-03-25T15:20:33;9.18;64.23
86521;SHT30;77161;52.480;13.348;2024-03-25T15:22:59;9.12;64.95
86521;SHT30;77161;52.480;13.348;2024-03-25T15:25:25;8.96;65.53
86521;SHT30;77161;52.480;13.348;2024-03-25T15:27:50;8.67;67.00
86521;SHT30;77161;52.480;13.348;2024-03-25T15:30:16;8.53;67.87
86521;SHT30;77161;52.480;13.348;2024-03-25T15:32:41;8.36;68.88